sensor_id;sensor_type;location;lat;lon;timestamp;P1;durP1;ratioP1;P2;durP2;ratioP2
22282;SDS011;11310;51.528;21.204;2023-02-03T00:01:13;5.78;;;2.22;;
22282;SDS011;11310;51.528;21.204;2023-02-03T00:03:43;6.10;;;1.90;;
22282;SDS011;11310;51.528;21.204;2023-02-03T00:06:12;4.28;;;2.00;;
22282;SDS011;11310;51.528;21.204;2023-02-03T00:08:40;2.42;;;1.60;;
22282;SDS011;11310;51.528;21.204;2023-02-03T00:11:08;5.70;;;2.25;;
22282;SDS011;11310;51.528;21.204;2023-02-03T00:13:37;4.88;;;2.15;;
22282;SDS011;11310;51.528;21.204;2023-02-03T00:16:05;4.95;;;1.70;;
22282;SDS011;11310;51.528;21.204;2023-02-03T00:18:34;4.03;;;1.85;;
22282;SDS011;11310;51.528;21.204;2023-02-03T00:21:04;4.90;;;1.88;;
22282;SDS011;11310;51.528;21.204;2023-02-03T00:26:06;6.95;;;2.17;;
22282;SDS011;11310;51.528;21.204;2023-02-03T00:28:35;5.47;;;2.33;;
22282;SDS011;11310;51.528;21.204;2023-02-03T00:31:04;5.03;;;2.22;;
22282;SDS011;11310;51.528;21.204;2023-02-03T00:33:33;8.82;;;2.50;;
22282;SDS011;11310;51.528;21.204;2023-02-03T00:36:05;5.63;;;2.35;;
22282;SDS011;11310;51.528;21.204;2023-02-03T00:38:34;5.15;;;2.35;;
22282;SDS011;11310;51.528;21.204;2023-02-03T00:41:03;5.22;;;1.92;;
22282;SDS011;11310;51.528;21.204;2023-02-03T00:43:31;6.90;;;2.70;;
22282;SDS011;11310;51.528;21.204;2023-02-03T00:46:00;5.68;;;2.35;;
22282;SDS011;11310;51.528;21.204;2023-02-03T00:48:28;7.00;;;2.67;;
22282;SDS011;11310;51.528;21.204;2023-02-03T00:50:57;5.13;;;2.30;;
22282;SDS011;11310;51.528;21.204;2023-02-03T00:53:28;5.38;;;2.10;;
22282;SDS011;11310;51.528;21.204;2023-02-03T00:55:56;8.07;;;2.22;;
22282;SDS011;11310;51.528;21.204;2023-02-03T00:58:24;5.40;;;2.40;;
22282;SDS011;11310;51.528;21.204;2023-02-03T01:00:53;4.65;;;2.47;;
22282;SDS011;11310;51.528;21.204;2023-02-03T01:03:24;6.65;;;2.30;;
22282;SDS011;11310;51.528;21.204;2023-02-03T01:05:52;4.85;;;2.40;;
22282;SDS011;11310;51.528;21.204;2023-02-03T01:08:21;6.25;;;2.45;;
22282;SDS011;11310;51.528;21.204;2023-02-03T01:10:51;8.75;;;2.25;;
22282;SDS011;11310;51.528;21.204;2023-02-03T01:13:19;4.10;;;2.10;;
22282;SDS011;11310;51.528;21.204;2023-02-03T01:15:48;8.02;;;2.47;;
22282;SDS011;11310;51.528;21.204;2023-02-03T01:18:16;5.97;;;2.13;;
22282;SDS011;11310;51.528;21.204;2023-02-03T01:20:47;7.40;;;2.35;;
22282;SDS011;11310;51.528;21.204;2023-02-03T01:23:15;6.65;;;2.58;;
22282;SDS011;11310;51.528;21.204;2023-02-03T01:25:44;5.00;;;2.50;;
22282;SDS011;11310;51.528;21.204;2023-02-03T01:28:14;5.13;;;2.22;;
22282;SDS011;11310;51.528;21.204;2023-02-03T01:30:44;2.25;;;1.58;;
22282;SDS011;11310;51.528;21.204;2023-02-03T01:33:12;5.65;;;2.28;;
22282;SDS011;11310;51.528;21.204;2023-02-03T01:35:41;4.80;;;2.13;;
22282;SDS011;11310;51.528;21.204;2023-02-03T01:38:09;6.53;;;2.35;;
22282;SDS011;11310;51.528;21.204;2023-02-03T01:40:41;7.05;;;2.38;;
22282;SDS011;11310;51.528;21.204;2023-02-03T01:43:10;4.68;;;2.15;;
22282;SDS011;11310;51.528;21.204;2023-02-03T01:45:40;8.15;;;2.13;;
22282;SDS011;11310;51.528;21.204;2023-02-03T01:48:08;4.03;;;2.13;;
22282;SDS011;11310;51.528;21.204;2023-02-03T01:50:37;4.15;;;2.10;;
22282;SDS011;11310;51.528;21.204;2023-02-03T01:53:07;4.65;;;2.25;;
22282;SDS011;11310;51.528;21.204;2023-02-03T01:55:39;5.65;;;2.30;;
22282;SDS011;11310;51.528;21.204;2023-02-03T01:58:11;3.90;;;2.03;;
22282;SDS011;11310;51.528;21.204;2023-02-03T02:00:47;5.68;;;2.55;;
22282;SDS011;11310;51.528;21.204;2023-02-03T02:03:16;5.78;;;2.30;;
22282;SDS011;11310;51.528;21.204;2023-02-03T02:05:48;3.38;;;1.83;;
22282;SDS011;11310;51.528;21.204;2023-02-03T02:08:20;5.57;;;2.40;;
22282;SDS011;11310;51.528;21.204;2023-02-03T02:10:49;6.00;;;2.13;;
22282;SDS011;11310;51.528;21.204;2023-02-03T02:13:18;5.45;;;1.90;;
22282;SDS011;11310;51.528;21.204;2023-02-03T02:15:52;5.10;;;2.15;;
22282;SDS011;11310;51.528;21.204;2023-02-03T02:21:28;4.47;;;2.08;;
22282;SDS011;11310;51.528;21.204;2023-02-03T02:24:31;4.95;;;1.98;;
22282;SDS011;11310;51.528;21.204;2023-02-03T02:27:25;4.63;;;1.92;;
22282;SDS011;11310;51.528;21.204;2023-02-03T02:30:16;4.03;;;2.00;;
22282;SDS011;11310;51.528;21.204;2023-02-03T02:33:10;4.28;;;2.17;;
22282;SDS011;11310;51.528;21.204;2023-02-03T02:35:46;3.60;;;2.00;;
22282;SDS011;11310;51.528;21.204;2023-02-03T02:38:25;7.07;;;2.38;;
22282;SDS011;11310;51.528;21.204;2023-02-03T02:41:05;7.05;;;2.17;;
22282;SDS011;11310;51.528;21.204;2023-02-03T02:43:39;5.30;;;1.98;;
22282;SDS011;11310;51.528;21.204;2023-02-03T02:46:10;5.87;;;2.20;;
22282;SDS011;11310;51.528;21.204;2023-02-03T02:48:44;6.63;;;2.53;;
22282;SDS011;11310;51.528;21.204;2023-02-03T02:51:17;5.07;;;2.17;;
22282;SDS011;11310;51.528;21.204;2023-02-03T02:53:50;3.47;;;1.75;;
22282;SDS011;11310;51.528;21.204;2023-02-03T02:56:22;4.25;;;2.22;;
22282;SDS011;11310;51.528;21.204;2023-02-03T02:58:52;5.25;;;2.33;;
22282;SDS011;11310;51.528;21.204;2023-02-03T03:01:24;9.60;;;2.60;;
22282;SDS011;11310;51.528;21.204;2023-02-03T03:03:54;6.45;;;2.28;;
22282;SDS011;11310;51.528;21.204;2023-02-03T03:06:25;6.15;;;2.47;;
22282;SDS011;11310;51.528;21.204;2023-02-03T03:08:57;4.90;;;2.17;;
22282;SDS011;11310;51.528;21.204;2023-02-03T03:11:30;5.40;;;2.20;;
22282;SDS011;11310;51.528;21.204;2023-02-03T03:14:04;4.97;;;2.35;;
22282;SDS011;11310;51.528;21.204;2023-02-03T03:16:36;7.72;;;2.92;;
22282;SDS011;11310;51.528;21.204;2023-02-03T03:19:09;4.95;;;2.28;;
22282;SDS011;11310;51.528;21.204;2023-02-03T03:21:42;5.13;;;2.20;;
22282;SDS011;11310;51.528;21.204;2023-02-03T03:24:15;4.18;;;1.98;;
22282;SDS011;11310;51.528;21.204;2023-02-03T03:26:49;4.75;;;1.85;;
22282;SDS011;11310;51.528;21.204;2023-02-03T03:29:21;4.43;;;1.90;;
22282;SDS011;11310;51.528;21.204;2023-02-03T03:31:57;2.70;;;1.55;;
22282;SDS011;11310;51.528;21.204;2023-02-03T03:34:27;3.65;;;1.65;;
22282;SDS011;11310;51.528;21.204;2023-02-03T03:36:59;3.05;;;1.60;;
22282;SDS011;11310;51.528;21.204;2023-02-03T03:39:34;4.95;;;1.75;;
22282;SDS011;11310;51.528;21.204;2023-02-03T03:42:09;4.50;;;1.65;;
22282;SDS011;11310;51.528;21.204;2023-02-03T03:44:47;7.68;;;2.03;;
22282;SDS011;11310;51.528;21.204;2023-02-03T03:51:47;3.25;;;1.52;;
22282;SDS011;11310;51.528;21.204;2023-02-03T03:54:19;6.07;;;1.73;;
22282;SDS011;11310;51.528;21.204;2023-02-03T03:56:50;4.60;;;1.70;;
22282;SDS011;11310;51.528;21.204;2023-02-03T03:59:24;3.70;;;1.65;;
22282;SDS011;11310;51.528;21.204;2023-02-03T04:01:58;3.65;;;1.98;;
22282;SDS011;11310;51.528;21.204;2023-02-03T04:04:31;4.72;;;1.90;;
22282;SDS011;11310;51.528;21.204;2023-02-03T04:07:02;3.53;;;1.55;;
22282;SDS011;11310;51.528;21.204;2023-02-03T04:09:31;4.90;;;1.85;;
22282;SDS011;11310;51.528;21.204;2023-02-03T04:12:02;5.38;;;1.45;;
22282;SDS011;11310;51.528;21.204;2023-02-03T04:14:34;6.22;;;1.52;;
22282;SDS011;11310;51.528;21.204;2023-02-03T04:17:04;4.72;;;1.73;;
22282;SDS011;11310;51.528;21.204;2023-02-03T04:19:33;3.58;;;1.65;;
22282;SDS011;11310;51.528;21.204;2023-02-03T04:22:03;2.90;;;1.48;;
22282;SDS011;11310;51.528;21.204;2023-02-03T04:24:32;3.80;;;1.20;;
22282;SDS011;11310;51.528;21.204;2023-02-03T04:27:01;3.30;;;1.30;;
22282;SDS011;11310;51.528;21.204;2023-02-03T04:29:31;4.18;;;1.83;;
22282;SDS011;11310;51.528;21.204;2023-02-03T04:31:59;5.65;;;1.67;;
22282;SDS011;11310;51.528;21.204;2023-02-03T04:34:28;3.85;;;1.40;;
22282;SDS011;11310;51.528;21.204;2023-02-03T04:36:56;4.30;;;1.48;;
22282;SDS011;11310;51.528;21.204;2023-02-03T04:39:26;3.50;;;1.30;;
22282;SDS011;11310;51.528;21.204;2023-02-03T04:41:55;6.07;;;1.52;;
22282;SDS011;11310;51.528;21.204;2023-02-03T04:44:23;3.95;;;1.33;;
22282;SDS011;11310;51.528;21.204;2023-02-03T04:46:51;5.38;;;1.38;;
22282;SDS011;11310;51.528;21.204;2023-02-03T04:49:20;5.05;;;1.80;;
22282;SDS011;11310;51.528;21.204;2023-02-03T04:51:49;3.78;;;1.50;;
22282;SDS011;11310;51.528;21.204;2023-02-03T04:54:18;3.55;;;1.40;;
22282;SDS011;11310;51.528;21.204;2023-02-03T04:56:47;6.22;;;1.70;;
22282;SDS011;11310;51.528;21.204;2023-02-03T04:59:16;3.72;;;1.50;;
22282;SDS011;11310;51.528;21.204;2023-02-03T05:01:44;4.60;;;1.55;;
22282;SDS011;11310;51.528;21.204;2023-02-03T05:04:13;5.22;;;1.77;;
22282;SDS011;11310;51.528;21.204;2023-02-03T05:06:41;3.72;;;1.35;;
22282;SDS011;11310;51.528;21.204;2023-02-03T05:09:10;4.53;;;1.60;;
22282;SDS011;11310;51.528;21.204;2023-02-03T05:11:38;3.67;;;1.50;;
22282;SDS011;11310;51.528;21.204;2023-02-03T05:14:08;5.63;;;1.63;;
22282;SDS011;11310;51.528;21.204;2023-02-03T05:16:36;4.30;;;2.00;;
22282;SDS011;11310;51.528;21.204;2023-02-03T05:19:05;3.40;;;1.67;;
22282;SDS011;11310;51.528;21.204;2023-02-03T05:21:35;4.03;;;1.60;;
22282;SDS011;11310;51.528;21.204;2023-02-03T05:24:04;3.15;;;1.40;;
22282;SDS011;11310;51.528;21.204;2023-02-03T05:26:33;2.95;;;1.33;;
22282;SDS011;11310;51.528;21.204;2023-02-03T05:29:02;3.58;;;1.50;;
22282;SDS011;11310;51.528;21.204;2023-02-03T05:31:32;4.10;;;1.70;;
22282;SDS011;11310;51.528;21.204;2023-02-03T05:34:01;3.75;;;1.60;;
22282;SDS011;11310;51.528;21.204;2023-02-03T05:36:30;4.55;;;1.63;;
22282;SDS011;11310;51.528;21.204;2023-02-03T05:38:58;5.30;;;2.00;;
22282;SDS011;11310;51.528;21.204;2023-02-03T05:41:27;7.03;;;1.75;;
22282;SDS011;11310;51.528;21.204;2023-02-03T05:44:13;6.60;;;2.17;;
22282;SDS011;11310;51.528;21.204;2023-02-03T05:46:42;7.85;;;2.92;;
22282;SDS011;11310;51.528;21.204;2023-02-03T05:49:10;8.77;;;3.58;;
22282;SDS011;11310;51.528;21.204;2023-02-03T05:51:39;9.18;;;3.45;;
22282;SDS011;11310;51.528;21.204;2023-02-03T05:54:08;7.95;;;3.28;;
22282;SDS011;11310;51.528;21.204;2023-02-03T05:56:36;7.45;;;2.95;;
22282;SDS011;11310;51.528;21.204;2023-02-03T05:59:05;6.95;;;2.30;;
22282;SDS011;11310;51.528;21.204;2023-02-03T06:01:34;5.10;;;2.00;;
22282;SDS011;11310;51.528;21.204;2023-02-03T06:04:04;7.00;;;2.78;;
22282;SDS011;11310;51.528;21.204;2023-02-03T06:06:33;6.90;;;2.47;;
22282;SDS011;11310;51.528;21.204;2023-02-03T06:09:03;9.45;;;2.45;;
22282;SDS011;11310;51.528;21.204;2023-02-03T06:11:33;7.53;;;2.30;;
22282;SDS011;11310;51.528;21.204;2023-02-03T06:14:03;7.30;;;2.70;;
22282;SDS011;11310;51.528;21.204;2023-02-03T06:16:31;8.95;;;2.47;;
22282;SDS011;11310;51.528;21.204;2023-02-03T06:19:00;7.65;;;2.67;;
22282;SDS011;11310;51.528;21.204;2023-02-03T06:21:30;7.05;;;2.50;;
22282;SDS011;11310;51.528;21.204;2023-02-03T06:23:58;9.63;;;3.03;;
22282;SDS011;11310;51.528;21.204;2023-02-03T06:26:26;11.10;;;2.95;;
22282;SDS011;11310;51.528;21.204;2023-02-03T06:28:55;9.68;;;3.00;;
22282;SDS011;11310;51.528;21.204;2023-02-03T06:31:23;9.43;;;3.33;;
22282;SDS011;11310;51.528;21.204;2023-02-03T06:33:52;11.98;;;4.38;;
22282;SDS011;11310;51.528;21.204;2023-02-03T06:36:23;13.68;;;5.63;;
22282;SDS011;11310;51.528;21.204;2023-02-03T06:38:53;14.68;;;5.65;;
22282;SDS011;11310;51.528;21.204;2023-02-03T06:41:22;15.93;;;6.50;;
22282;SDS011;11310;51.528;21.204;2023-02-03T06:43:54;11.68;;;5.50;;
22282;SDS011;11310;51.528;21.204;2023-02-03T06:46:24;10.93;;;4.10;;
22282;SDS011;11310;51.528;21.204;2023-02-03T06:48:55;10.07;;;4.00;;
22282;SDS011;11310;51.528;21.204;2023-02-03T06:51:24;9.35;;;4.05;;
22282;SDS011;11310;51.528;21.204;2023-02-03T06:53:53;9.20;;;3.35;;
22282;SDS011;11310;51.528;21.204;2023-02-03T06:56:22;11.00;;;3.80;;
22282;SDS011;11310;51.528;21.204;2023-02-03T06:58:50;7.28;;;3.50;;
22282;SDS011;11310;51.528;21.204;2023-02-03T07:01:18;9.77;;;3.20;;
22282;SDS011;11310;51.528;21.204;2023-02-03T07:03:47;7.65;;;3.28;;
22282;SDS011;11310;51.528;21.204;2023-02-03T07:06:15;8.77;;;3.10;;
22282;SDS011;11310;51.528;21.204;2023-02-03T07:08:43;9.02;;;3.10;;
22282;SDS011;11310;51.528;21.204;2023-02-03T07:11:13;9.73;;;3.60;;
22282;SDS011;11310;51.528;21.204;2023-02-03T07:13:42;8.75;;;3.40;;
22282;SDS011;11310;51.528;21.204;2023-02-03T07:16:10;10.27;;;4.32;;
22282;SDS011;11310;51.528;21.204;2023-02-03T07:18:39;13.68;;;5.03;;
22282;SDS011;11310;51.528;21.204;2023-02-03T07:21:15;14.30;;;4.45;;
22282;SDS011;11310;51.528;21.204;2023-02-03T07:23:45;12.85;;;5.55;;
22282;SDS011;11310;51.528;21.204;2023-02-03T07:26:16;9.55;;;3.60;;
22282;SDS011;11310;51.528;21.204;2023-02-03T07:28:44;16.88;;;4.88;;
22282;SDS011;11310;51.528;21.204;2023-02-03T07:31:13;13.23;;;4.38;;
22282;SDS011;11310;51.528;21.204;2023-02-03T07:33:42;9.35;;;3.15;;
22282;SDS011;11310;51.528;21.204;2023-02-03T07:36:11;6.97;;;2.78;;
22282;SDS011;11310;51.528;21.204;2023-02-03T07:38:39;8.20;;;2.97;;
22282;SDS011;11310;51.528;21.204;2023-02-03T07:41:07;7.75;;;2.60;;
22282;SDS011;11310;51.528;21.204;2023-02-03T07:43:37;6.68;;;2.28;;
22282;SDS011;11310;51.528;21.204;2023-02-03T07:46:05;6.43;;;2.30;;
22282;SDS011;11310;51.528;21.204;2023-02-03T07:48:34;9.05;;;3.00;;
22282;SDS011;11310;51.528;21.204;2023-02-03T07:51:02;8.02;;;3.10;;
22282;SDS011;11310;51.528;21.204;2023-02-03T07:53:31;8.15;;;2.95;;
22282;SDS011;11310;51.528;21.204;2023-02-03T07:56:00;7.80;;;2.92;;
22282;SDS011;11310;51.528;21.204;2023-02-03T07:58:28;11.45;;;3.63;;
22282;SDS011;11310;51.528;21.204;2023-02-03T08:00:59;10.82;;;3.58;;
22282;SDS011;11310;51.528;21.204;2023-02-03T08:03:27;12.73;;;4.32;;
22282;SDS011;11310;51.528;21.204;2023-02-03T08:05:56;8.27;;;3.72;;
22282;SDS011;11310;51.528;21.204;2023-02-03T08:08:24;9.00;;;2.97;;
22282;SDS011;11310;51.528;21.204;2023-02-03T08:10:53;9.63;;;2.97;;
22282;SDS011;11310;51.528;21.204;2023-02-03T08:13:22;6.28;;;3.10;;
22282;SDS011;11310;51.528;21.204;2023-02-03T08:15:51;9.60;;;3.80;;
22282;SDS011;11310;51.528;21.204;2023-02-03T08:18:20;10.52;;;3.45;;
22282;SDS011;11310;51.528;21.204;2023-02-03T08:20:49;6.82;;;2.92;;
22282;SDS011;11310;51.528;21.204;2023-02-03T08:23:18;8.88;;;2.85;;
22282;SDS011;11310;51.528;21.204;2023-02-03T08:25:49;8.25;;;3.05;;
22282;SDS011;11310;51.528;21.204;2023-02-03T08:28:18;12.13;;;3.80;;
22282;SDS011;11310;51.528;21.204;2023-02-03T08:30:47;8.88;;;3.15;;
22282;SDS011;11310;51.528;21.204;2023-02-03T08:33:15;9.27;;;2.80;;
22282;SDS011;11310;51.528;21.204;2023-02-03T08:35:46;6.15;;;2.20;;
22282;SDS011;11310;51.528;21.204;2023-02-03T08:38:15;5.28;;;2.20;;
22282;SDS011;11310;51.528;21.204;2023-02-03T08:40:44;7.05;;;2.60;;
22282;SDS011;11310;51.528;21.204;2023-02-03T08:43:13;5.68;;;2.67;;
22282;SDS011;11310;51.528;21.204;2023-02-03T08:45:42;6.32;;;2.58;;
22282;SDS011;11310;51.528;21.204;2023-02-03T08:48:10;6.93;;;2.47;;
22282;SDS011;11310;51.528;21.204;2023-02-03T08:50:39;7.15;;;2.47;;
22282;SDS011;11310;51.528;21.204;2023-02-03T08:53:09;5.72;;;2.28;;
22282;SDS011;11310;51.528;21.204;2023-02-03T08:55:38;6.18;;;2.53;;
22282;SDS011;11310;51.528;21.204;2023-02-03T08:58:07;7.13;;;2.33;;
22282;SDS011;11310;51.528;21.204;2023-02-03T09:00:36;7.75;;;2.83;;
22282;SDS011;11310;51.528;21.204;2023-02-03T09:03:04;7.22;;;2.70;;
22282;SDS011;11310;51.528;21.204;2023-02-03T09:05:33;7.68;;;3.10;;
22282;SDS011;11310;51.528;21.204;2023-02-03T09:08:02;6.93;;;2.85;;
22282;SDS011;11310;51.528;21.204;2023-02-03T09:10:33;6.38;;;2.53;;
22282;SDS011;11310;51.528;21.204;2023-02-03T09:13:03;5.88;;;2.33;;
22282;SDS011;11310;51.528;21.204;2023-02-03T09:15:31;6.90;;;2.40;;
22282;SDS011;11310;51.528;21.204;2023-02-03T09:18:00;5.22;;;2.00;;
22282;SDS011;11310;51.528;21.204;2023-02-03T09:20:29;4.45;;;1.85;;
22282;SDS011;11310;51.528;21.204;2023-02-03T09:22:58;8.60;;;2.55;;
22282;SDS011;11310;51.528;21.204;2023-02-03T09:25:27;4.43;;;2.05;;
22282;SDS011;11310;51.528;21.204;2023-02-03T09:27:57;9.85;;;2.13;;
22282;SDS011;11310;51.528;21.204;2023-02-03T09:30:25;5.40;;;2.10;;
22282;SDS011;11310;51.528;21.204;2023-02-03T09:32:54;5.88;;;1.80;;
22282;SDS011;11310;51.528;21.204;2023-02-03T09:35:24;4.82;;;2.17;;
22282;SDS011;11310;51.528;21.204;2023-02-03T09:37:55;6.95;;;2.08;;
22282;SDS011;11310;51.528;21.204;2023-02-03T09:40:26;7.70;;;2.17;;
22282;SDS011;11310;51.528;21.204;2023-02-03T09:43:05;6.63;;;2.38;;
22282;SDS011;11310;51.528;21.204;2023-02-03T09:45:39;6.47;;;2.42;;
22282;SDS011;11310;51.528;21.204;2023-02-03T09:48:10;6.60;;;2.40;;
22282;SDS011;11310;51.528;21.204;2023-02-03T09:50:43;8.88;;;2.65;;
22282;SDS011;11310;51.528;21.204;2023-02-03T09:53:17;4.70;;;1.92;;
22282;SDS011;11310;51.528;21.204;2023-02-03T09:55:54;6.65;;;2.55;;
22282;SDS011;11310;51.528;21.204;2023-02-03T09:58:25;5.60;;;1.88;;
22282;SDS011;11310;51.528;21.204;2023-02-03T10:00:58;7.03;;;2.20;;
22282;SDS011;11310;51.528;21.204;2023-02-03T10:03:29;4.63;;;1.92;;
22282;SDS011;11310;51.528;21.204;2023-02-03T10:06:09;7.03;;;2.42;;
22282;SDS011;11310;51.528;21.204;2023-02-03T10:08:51;5.57;;;2.40;;
22282;SDS011;11310;51.528;21.204;2023-02-03T10:11:38;5.35;;;2.05;;
22282;SDS011;11310;51.528;21.204;2023-02-03T10:14:21;6.50;;;2.10;;
22282;SDS011;11310;51.528;21.204;2023-02-03T10:19:57;7.82;;;2.60;;
22282;SDS011;11310;51.528;21.204;2023-02-03T10:22:31;7.72;;;2.90;;
22282;SDS011;11310;51.528;21.204;2023-02-03T10:25:06;8.32;;;2.97;;
22282;SDS011;11310;51.528;21.204;2023-02-03T10:27:42;7.57;;;2.88;;
22282;SDS011;11310;51.528;21.204;2023-02-03T10:30:22;6.78;;;2.75;;
22282;SDS011;11310;51.528;21.204;2023-02-03T10:32:53;8.20;;;2.40;;
22282;SDS011;11310;51.528;21.204;2023-02-03T10:35:25;7.78;;;2.90;;
22282;SDS011;11310;51.528;21.204;2023-02-03T10:38:02;8.43;;;3.08;;
22282;SDS011;11310;51.528;21.204;2023-02-03T10:40:37;8.40;;;2.58;;
22282;SDS011;11310;51.528;21.204;2023-02-03T10:43:07;7.00;;;2.65;;
22282;SDS011;11310;51.528;21.204;2023-02-03T10:45:56;7.60;;;2.83;;
22282;SDS011;11310;51.528;21.204;2023-02-03T10:48:25;5.32;;;2.33;;
22282;SDS011;11310;51.528;21.204;2023-02-03T10:50:54;6.15;;;2.60;;
22282;SDS011;11310;51.528;21.204;2023-02-03T10:53:25;8.23;;;2.90;;
22282;SDS011;11310;51.528;21.204;2023-02-03T10:56:00;7.85;;;2.80;;
22282;SDS011;11310;51.528;21.204;2023-02-03T10:58:32;7.47;;;3.22;;
22282;SDS011;11310;51.528;21.204;2023-02-03T11:01:08;10.77;;;4.50;;
22282;SDS011;11310;51.528;21.204;2023-02-03T11:03:40;11.60;;;4.68;;
22282;SDS011;11310;51.528;21.204;2023-02-03T11:06:10;9.63;;;3.13;;
22282;SDS011;11310;51.528;21.204;2023-02-03T11:08:42;10.60;;;3.80;;
22282;SDS011;11310;51.528;21.204;2023-02-03T11:11:12;22.85;;;8.60;;
22282;SDS011;11310;51.528;21.204;2023-02-03T11:13:42;13.13;;;5.38;;
22282;SDS011;11310;51.528;21.204;2023-02-03T11:16:13;9.55;;;4.60;;
22282;SDS011;11310;51.528;21.204;2023-02-03T11:18:50;13.90;;;5.38;;
22282;SDS011;11310;51.528;21.204;2023-02-03T11:21:21;16.00;;;5.53;;
22282;SDS011;11310;51.528;21.204;2023-02-03T11:23:53;11.52;;;4.35;;
22282;SDS011;11310;51.528;21.204;2023-02-03T11:26:25;14.25;;;5.40;;
22282;SDS011;11310;51.528;21.204;2023-02-03T11:28:57;12.63;;;4.43;;
22282;SDS011;11310;51.528;21.204;2023-02-03T11:31:28;13.48;;;5.32;;
22282;SDS011;11310;51.528;21.204;2023-02-03T11:34:00;11.43;;;4.50;;
22282;SDS011;11310;51.528;21.204;2023-02-03T11:36:33;12.20;;;4.43;;
22282;SDS011;11310;51.528;21.204;2023-02-03T11:41:55;9.23;;;4.15;;
22282;SDS011;11310;51.528;21.204;2023-02-03T11:44:24;9.43;;;4.05;;
22282;SDS011;11310;51.528;21.204;2023-02-03T11:46:58;10.93;;;3.78;;
22282;SDS011;11310;51.528;21.204;2023-02-03T11:49:45;11.13;;;4.38;;
22282;SDS011;11310;51.528;21.204;2023-02-03T11:55:32;8.68;;;3.78;;
22282;SDS011;11310;51.528;21.204;2023-02-03T11:58:14;8.02;;;2.90;;
22282;SDS011;11310;51.528;21.204;2023-02-03T12:00:54;8.02;;;3.25;;
22282;SDS011;11310;51.528;21.204;2023-02-03T12:03:42;9.25;;;4.03;;
22282;SDS011;11310;51.528;21.204;2023-02-03T12:09:29;15.70;;;6.72;;
22282;SDS011;11310;51.528;21.204;2023-02-03T12:12:11;14.40;;;6.50;;
22282;SDS011;11310;51.528;21.204;2023-02-03T12:14:55;10.00;;;4.43;;
22282;SDS011;11310;51.528;21.204;2023-02-03T12:17:39;10.98;;;4.57;;
22282;SDS011;11310;51.528;21.204;2023-02-03T12:20:27;15.48;;;5.85;;
22282;SDS011;11310;51.528;21.204;2023-02-03T12:23:10;17.15;;;6.47;;
22282;SDS011;11310;51.528;21.204;2023-02-03T12:25:57;11.93;;;5.05;;
22282;SDS011;11310;51.528;21.204;2023-02-03T12:31:13;17.50;;;6.03;;
22282;SDS011;11310;51.528;21.204;2023-02-03T12:33:47;13.10;;;5.22;;
22282;SDS011;11310;51.528;21.204;2023-02-03T12:36:21;12.85;;;5.45;;
22282;SDS011;11310;51.528;21.204;2023-02-03T12:38:54;8.82;;;3.70;;
22282;SDS011;11310;51.528;21.204;2023-02-03T12:41:27;12.70;;;4.65;;
22282;SDS011;11310;51.528;21.204;2023-02-03T12:43:59;14.95;;;4.57;;
22282;SDS011;11310;51.528;21.204;2023-02-03T12:46:34;12.05;;;4.32;;
22282;SDS011;11310;51.528;21.204;2023-02-03T12:49:11;20.75;;;7.40;;
22282;SDS011;11310;51.528;21.204;2023-02-03T12:51:52;21.02;;;7.85;;
22282;SDS011;11310;51.528;21.204;2023-02-03T12:54:29;17.23;;;6.60;;
22282;SDS011;11310;51.528;21.204;2023-02-03T12:57:17;12.60;;;4.22;;
22282;SDS011;11310;51.528;21.204;2023-02-03T13:02:44;15.82;;;5.85;;
22282;SDS011;11310;51.528;21.204;2023-02-03T13:05:23;20.20;;;6.95;;
22282;SDS011;11310;51.528;21.204;2023-02-03T13:08:00;13.90;;;4.88;;
22282;SDS011;11310;51.528;21.204;2023-02-03T13:10:38;13.75;;;5.70;;
22282;SDS011;11310;51.528;21.204;2023-02-03T13:13:15;7.75;;;3.30;;
22282;SDS011;11310;51.528;21.204;2023-02-03T13:15:48;17.70;;;5.72;;
22282;SDS011;11310;51.528;21.204;2023-02-03T13:18:21;31.73;;;10.52;;
22282;SDS011;11310;51.528;21.204;2023-02-03T13:20:55;19.77;;;8.02;;
22282;SDS011;11310;51.528;21.204;2023-02-03T13:23:25;13.20;;;5.53;;
22282;SDS011;11310;51.528;21.204;2023-02-03T13:26:07;11.43;;;4.35;;
22282;SDS011;11310;51.528;21.204;2023-02-03T13:28:59;11.98;;;4.38;;
22282;SDS011;11310;51.528;21.204;2023-02-03T13:31:40;11.80;;;4.65;;
22282;SDS011;11310;51.528;21.204;2023-02-03T13:34:31;10.05;;;4.10;;
22282;SDS011;11310;51.528;21.204;2023-02-03T13:37:19;14.13;;;6.13;;
22282;SDS011;11310;51.528;21.204;2023-02-03T13:40:06;28.48;;;9.23;;
22282;SDS011;11310;51.528;21.204;2023-02-03T13:42:43;16.88;;;6.28;;
22282;SDS011;11310;51.528;21.204;2023-02-03T13:45:15;16.73;;;6.95;;
22282;SDS011;11310;51.528;21.204;2023-02-03T13:47:50;26.92;;;9.95;;
22282;SDS011;11310;51.528;21.204;2023-02-03T13:50:25;25.08;;;9.68;;
22282;SDS011;11310;51.528;21.204;2023-02-03T13:52:57;37.78;;;15.60;;
22282;SDS011;11310;51.528;21.204;2023-02-03T13:55:32;19.92;;;9.00;;
22282;SDS011;11310;51.528;21.204;2023-02-03T13:58:04;35.00;;;13.77;;
22282;SDS011;11310;51.528;21.204;2023-02-03T14:03:39;16.75;;;6.95;;
22282;SDS011;11310;51.528;21.204;2023-02-03T14:12:29;28.90;;;12.23;;
22282;SDS011;11310;51.528;21.204;2023-02-03T14:15:16;20.60;;;8.48;;
22282;SDS011;11310;51.528;21.204;2023-02-03T14:17:54;19.08;;;7.05;;
22282;SDS011;11310;51.528;21.204;2023-02-03T14:23:26;15.65;;;7.22;;
22282;SDS011;11310;51.528;21.204;2023-02-03T14:26:05;15.57;;;6.80;;
22282;SDS011;11310;51.528;21.204;2023-02-03T14:28:46;13.32;;;6.72;;
22282;SDS011;11310;51.528;21.204;2023-02-03T14:31:19;18.52;;;8.02;;
22282;SDS011;11310;51.528;21.204;2023-02-03T14:33:54;18.13;;;8.38;;
22282;SDS011;11310;51.528;21.204;2023-02-03T14:36:39;16.92;;;7.25;;
22282;SDS011;11310;51.528;21.204;2023-02-03T14:42:09;20.48;;;8.27;;
22282;SDS011;11310;51.528;21.204;2023-02-03T14:44:49;17.65;;;8.38;;
22282;SDS011;11310;51.528;21.204;2023-02-03T14:47:34;18.48;;;7.78;;
22282;SDS011;11310;51.528;21.204;2023-02-03T14:50:17;16.83;;;7.47;;
22282;SDS011;11310;51.528;21.204;2023-02-03T14:52:58;14.93;;;7.13;;
22282;SDS011;11310;51.528;21.204;2023-02-03T14:55:43;19.50;;;7.75;;
22282;SDS011;11310;51.528;21.204;2023-02-03T14:58:21;23.92;;;9.52;;
22282;SDS011;11310;51.528;21.204;2023-02-03T15:00:56;30.58;;;11.05;;
22282;SDS011;11310;51.528;21.204;2023-02-03T15:03:26;55.53;;;17.33;;
22282;SDS011;11310;51.528;21.204;2023-02-03T15:08:36;76.43;;;23.35;;
22282;SDS011;11310;51.528;21.204;2023-02-03T15:14:13;29.50;;;12.10;;
22282;SDS011;11310;51.528;21.204;2023-02-03T15:16:49;28.80;;;9.80;;
22282;SDS011;11310;51.528;21.204;2023-02-03T15:19:24;15.68;;;7.15;;
22282;SDS011;11310;51.528;21.204;2023-02-03T15:21:54;20.75;;;8.55;;
22282;SDS011;11310;51.528;21.204;2023-02-03T15:24:23;28.73;;;12.00;;
22282;SDS011;11310;51.528;21.204;2023-02-03T15:26:52;31.08;;;12.75;;
22282;SDS011;11310;51.528;21.204;2023-02-03T15:29:23;16.50;;;7.65;;
22282;SDS011;11310;51.528;21.204;2023-02-03T15:31:58;16.45;;;7.10;;
22282;SDS011;11310;51.528;21.204;2023-02-03T15:34:32;23.67;;;9.55;;
22282;SDS011;11310;51.528;21.204;2023-02-03T15:37:06;15.43;;;7.50;;
22282;SDS011;11310;51.528;21.204;2023-02-03T15:39:41;32.10;;;11.80;;
22282;SDS011;11310;51.528;21.204;2023-02-03T15:42:19;16.85;;;6.90;;
22282;SDS011;11310;51.528;21.204;2023-02-03T15:44:53;14.85;;;5.85;;
22282;SDS011;11310;51.528;21.204;2023-02-03T15:47:29;13.13;;;5.75;;
22282;SDS011;11310;51.528;21.204;2023-02-03T15:50:04;16.60;;;6.63;;